sensor_id;sensor_type;location;lat;lon;timestamp;P1;durP1;ratioP1;P2;durP2;ratioP2
12214;SDS011;6170;42.206;24.142;2023-03-24T09:57:01;16.10;;;13.10;;
12214;SDS011;6170;42.206;24.142;2023-03-24T09:59:31;18.95;;;13.80;;
12214;SDS011;6170;42.206;24.142;2023-03-24T10:02:03;16.25;;;13.00;;
12214;SDS011;6170;42.206;24.142;2023-03-24T10:04:36;18.25;;;13.18;;
12214;SDS011;6170;42.206;24.142;2023-03-24T10:07:05;17.20;;;14.10;;
12214;SDS011;6170;42.206;24.142;2023-03-24T10:09:39;18.17;;;13.65;;
12214;SDS011;6170;42.206;24.142;2023-03-24T10:12:16;22.20;;;13.02;;
12214;SDS011;6170;42.206;24.142;2023-03-24T10:14:54;21.60;;;14.52;;
12214;SDS011;6170;42.206;24.142;2023-03-24T10:17:35;17.80;;;14.30;;
12214;SDS011;6170;42.206;24.142;2023-03-24T10:20:10;15.65;;;12.50;;
12214;SDS011;6170;42.206;24.142;2023-03-24T10:22:47;17.25;;;12.15;;
12214;SDS011;6170;42.206;24.142;2023-03-24T10:25:23;16.38;;;12.60;;
12214;SDS011;6170;42.206;24.142;2023-03-24T10:27:57;13.98;;;12.30;;
12214;SDS011;6170;42.206;24.142;2023-03-24T10:30:28;15.63;;;12.23;;
12214;SDS011;6170;42.206;24.142;2023-03-24T10:32:58;15.82;;;12.48;;
12214;SDS011;6170;42.206;24.142;2023-03-24T10:35:27;16.65;;;12.70;;
12214;SDS011;6170;42.206;24.142;2023-03-24T10:37:58;19.55;;;13.10;;
12214;SDS011;6170;42.206;24.142;2023-03-24T10:40:29;13.43;;;11.40;;
12214;SDS011;6170;42.206;24.142;2023-03-24T10:43:00;16.80;;;12.57;;
12214;SDS011;6170;42.206;24.142;2023-03-24T10:45:31;13.90;;;11.77;;
12214;SDS011;6170;42.206;24.142;2023-03-24T10:48:00;18.02;;;12.23;;
12214;SDS011;6170;42.206;24.142;2023-03-24T10:50:28;19.27;;;12.90;;
12214;SDS011;6170;42.206;24.142;2023-03-24T10:52:57;16.83;;;11.85;;
12214;SDS011;6170;42.206;24.142;2023-03-24T10:55:27;17.25;;;11.75;;
12214;SDS011;6170;42.206;24.142;2023-03-24T10:57:57;18.50;;;10.30;;
12214;SDS011;6170;42.206;24.142;2023-03-24T11:00:26;15.57;;;10.15;;
12214;SDS011;6170;42.206;24.142;2023-03-24T11:02:56;12.63;;;9.77;;
12214;SDS011;6170;42.206;24.142;2023-03-24T11:05:26;10.93;;;8.48;;
12214;SDS011;6170;42.206;24.142;2023-03-24T11:07:57;11.75;;;8.30;;
12214;SDS011;6170;42.206;24.142;2023-03-24T11:10:37;9.13;;;8.20;;
12214;SDS011;6170;42.206;24.142;2023-03-24T11:13:13;12.10;;;8.13;;
12214;SDS011;6170;42.206;24.142;2023-03-24T11:15:51;14.25;;;9.25;;
12214;SDS011;6170;42.206;24.142;2023-03-24T11:18:21;12.02;;;8.90;;
12214;SDS011;6170;42.206;24.142;2023-03-24T11:20:50;11.95;;;9.88;;
12214;SDS011;6170;42.206;24.142;2023-03-24T11:23:24;12.55;;;7.90;;
12214;SDS011;6170;42.206;24.142;2023-03-24T11:28:32;10.48;;;7.32;;
12214;SDS011;6170;42.206;24.142;2023-03-24T11:31:04;11.07;;;7.82;;
12214;SDS011;6170;42.206;24.142;2023-03-24T11:33:34;10.70;;;8.07;;
12214;SDS011;6170;42.206;24.142;2023-03-24T11:36:11;22.48;;;9.15;;
12214;SDS011;6170;42.206;24.142;2023-03-24T11:39:10;13.27;;;8.10;;
12214;SDS011;6170;42.206;24.142;2023-03-24T11:41:41;14.65;;;8.23;;
12214;SDS011;6170;42.206;24.142;2023-03-24T11:44:18;10.82;;;7.05;;
12214;SDS011;6170;42.206;24.142;2023-03-24T11:46:47;9.75;;;7.40;;
12214;SDS011;6170;42.206;24.142;2023-03-24T11:49:18;9.30;;;6.90;;
12214;SDS011;6170;42.206;24.142;2023-03-24T11:51:49;10.15;;;7.90;;
12214;SDS011;6170;42.206;24.142;2023-03-24T11:54:19;8.27;;;7.28;;
12214;SDS011;6170;42.206;24.142;2023-03-24T11:56:49;8.27;;;6.82;;
12214;SDS011;6170;42.206;24.142;2023-03-24T11:59:23;10.70;;;8.30;;
12214;SDS011;6170;42.206;24.142;2023-03-24T12:01:57;11.77;;;8.52;;
12214;SDS011;6170;42.206;24.142;2023-03-24T12:04:33;11.93;;;8.43;;
12214;SDS011;6170;42.206;24.142;2023-03-24T12:10:09;9.38;;;6.20;;
12214;SDS011;6170;42.206;24.142;2023-03-24T12:12:49;6.88;;;6.05;;
12214;SDS011;6170;42.206;24.142;2023-03-24T12:15:31;8.85;;;6.60;;
12214;SDS011;6170;42.206;24.142;2023-03-24T12:18:16;10.40;;;7.18;;
12214;SDS011;6170;42.206;24.142;2023-03-24T12:20:54;13.02;;;8.02;;
12214;SDS011;6170;42.206;24.142;2023-03-24T12:23:32;15.07;;;7.25;;
12214;SDS011;6170;42.206;24.142;2023-03-24T12:26:12;10.93;;;7.75;;
12214;SDS011;6170;42.206;24.142;2023-03-24T12:28:51;10.98;;;7.30;;
12214;SDS011;6170;42.206;24.142;2023-03-24T12:34:30;10.77;;;6.72;;
12214;SDS011;6170;42.206;24.142;2023-03-24T12:37:15;8.88;;;7.05;;
12214;SDS011;6170;42.206;24.142;2023-03-24T12:39:58;8.20;;;7.30;;
12214;SDS011;6170;42.206;24.142;2023-03-24T12:42:38;10.77;;;6.75;;
12214;SDS011;6170;42.206;24.142;2023-03-24T12:45:11;10.48;;;6.40;;
12214;SDS011;6170;42.206;24.142;2023-03-24T12:50:36;7.57;;;6.47;;
12214;SDS011;6170;42.206;24.142;2023-03-24T12:56:08;9.25;;;6.28;;
12214;SDS011;6170;42.206;24.142;2023-03-24T12:58:41;7.07;;;6.05;;
12214;SDS011;6170;42.206;24.142;2023-03-24T13:01:12;9.15;;;6.68;;
12214;SDS011;6170;42.206;24.142;2023-03-24T13:03:46;14.82;;;6.05;;
12214;SDS011;6170;42.206;24.142;2023-03-24T13:06:18;7.47;;;5.75;;
12214;SDS011;6170;42.206;24.142;2023-03-24T13:08:51;7.70;;;5.20;;
12214;SDS011;6170;42.206;24.142;2023-03-24T13:11:30;6.63;;;5.63;;
12214;SDS011;6170;42.206;24.142;2023-03-24T13:14:03;6.50;;;5.45;;
12214;SDS011;6170;42.206;24.142;2023-03-24T13:16:39;6.60;;;5.60;;
12214;SDS011;6170;42.206;24.142;2023-03-24T13:19:10;8.15;;;5.60;;
12214;SDS011;6170;42.206;24.142;2023-03-24T13:21:46;6.65;;;5.18;;
12214;SDS011;6170;42.206;24.142;2023-03-24T13:24:14;7.22;;;5.90;;
12214;SDS011;6170;42.206;24.142;2023-03-24T13:26:46;12.18;;;6.07;;
12214;SDS011;6170;42.206;24.142;2023-03-24T13:29:26;7.30;;;5.78;;
12214;SDS011;6170;42.206;24.142;2023-03-24T13:32:13;12.30;;;6.05;;
12214;SDS011;6170;42.206;24.142;2023-03-24T13:34:53;6.97;;;5.95;;
12214;SDS011;6170;42.206;24.142;2023-03-24T13:37:25;8.07;;;5.90;;
12214;SDS011;6170;42.206;24.142;2023-03-24T13:39:58;6.68;;;5.45;;
12214;SDS011;6170;42.206;24.142;2023-03-24T13:44:59;10.90;;;6.05;;
12214;SDS011;6170;42.206;24.142;2023-03-24T13:47:45;8.85;;;5.85;;
12214;SDS011;6170;42.206;24.142;2023-03-24T13:50:14;6.35;;;5.35;;
12214;SDS011;6170;42.206;24.142;2023-03-24T13:52:44;9.85;;;5.50;;
12214;SDS011;6170;42.206;24.142;2023-03-24T13:55:17;6.82;;;5.70;;
12214;SDS011;6170;42.206;24.142;2023-03-24T13:57:51;7.00;;;5.25;;
12214;SDS011;6170;42.206;24.142;2023-03-24T14:00:21;5.93;;;4.93;;
12214;SDS011;6170;42.206;24.142;2023-03-24T14:02:50;6.85;;;5.28;;
12214;SDS011;6170;42.206;24.142;2023-03-24T14:05:29;8.18;;;5.35;;
12214;SDS011;6170;42.206;24.142;2023-03-24T14:08:13;7.05;;;5.00;;
12214;SDS011;6170;42.206;24.142;2023-03-24T14:10:47;10.35;;;4.63;;
12214;SDS011;6170;42.206;24.142;2023-03-24T14:13:34;7.18;;;5.07;;
12214;SDS011;6170;42.206;24.142;2023-03-24T14:19:07;5.78;;;5.00;;
12214;SDS011;6170;42.206;24.142;2023-03-24T14:22:08;5.15;;;4.65;;
12214;SDS011;6170;42.206;24.142;2023-03-24T14:24:40;6.78;;;4.85;;
12214;SDS011;6170;42.206;24.142;2023-03-24T14:27:19;5.53;;;4.70;;
12214;SDS011;6170;42.206;24.142;2023-03-24T14:29:48;6.20;;;4.80;;
12214;SDS011;6170;42.206;24.142;2023-03-24T14:32:16;6.47;;;4.85;;
12214;SDS011;6170;42.206;24.142;2023-03-24T14:34:50;10.43;;;5.40;;
12214;SDS011;6170;42.206;24.142;2023-03-24T14:37:21;6.43;;;4.50;;
12214;SDS011;6170;42.206;24.142;2023-03-24T14:39:50;13.95;;;5.15;;
12214;SDS011;6170;42.206;24.142;2023-03-24T14:45:38;6.18;;;5.03;;
12214;SDS011;6170;42.206;24.142;2023-03-24T14:48:34;5.50;;;4.60;;
12214;SDS011;6170;42.206;24.142;2023-03-24T14:51:06;9.68;;;4.72;;
12214;SDS011;6170;42.206;24.142;2023-03-24T14:53:45;16.98;;;4.93;;
12214;SDS011;6170;42.206;24.142;2023-03-24T14:56:14;7.10;;;5.03;;
12214;SDS011;6170;42.206;24.142;2023-03-24T14:58:43;6.47;;;4.72;;
12214;SDS011;6170;42.206;24.142;2023-03-24T15:01:12;5.85;;;4.78;;
12214;SDS011;6170;42.206;24.142;2023-03-24T15:03:42;6.53;;;4.78;;
12214;SDS011;6170;42.206;24.142;2023-03-24T15:06:21;6.68;;;4.68;;
12214;SDS011;6170;42.206;24.142;2023-03-24T15:08:49;5.97;;;4.72;;
12214;SDS011;6170;42.206;24.142;2023-03-24T15:11:20;6.68;;;4.40;;
12214;SDS011;6170;42.206;24.142;2023-03-24T15:13:50;5.78;;;4.28;;
12214;SDS011;6170;42.206;24.142;2023-03-24T15:16:19;7.32;;;4.72;;
12214;SDS011;6170;42.206;24.142;2023-03-24T15:18:49;5.30;;;3.97;;
12214;SDS011;6170;42.206;24.142;2023-03-24T15:21:22;8.00;;;4.93;;
12214;SDS011;6170;42.206;24.142;2023-03-24T15:23:52;8.35;;;4.75;;
12214;SDS011;6170;42.206;24.142;2023-03-24T15:26:22;7.25;;;4.78;;
12214;SDS011;6170;42.206;24.142;2023-03-24T15:28:57;6.50;;;4.95;;
12214;SDS011;6170;42.206;24.142;2023-03-24T15:31:26;10.98;;;4.55;;
12214;SDS011;6170;42.206;24.142;2023-03-24T15:34:02;6.35;;;4.72;;
12214;SDS011;6170;42.206;24.142;2023-03-24T15:36:33;7.75;;;4.78;;
12214;SDS011;6170;42.206;24.142;2023-03-24T15:39:14;7.38;;;5.53;;
12214;SDS011;6170;42.206;24.142;2023-03-24T15:41:44;7.40;;;5.68;;
12214;SDS011;6170;42.206;24.142;2023-03-24T15:44:15;8.35;;;5.68;;
12214;SDS011;6170;42.206;24.142;2023-03-24T15:46:45;11.65;;;5.68;;
12214;SDS011;6170;42.206;24.142;2023-03-24T15:49:17;8.10;;;5.15;;
12214;SDS011;6170;42.206;24.142;2023-03-24T15:51:50;9.00;;;5.72;;
12214;SDS011;6170;42.206;24.142;2023-03-24T15:54:20;11.60;;;6.07;;
12214;SDS011;6170;42.206;24.142;2023-03-24T15:57:09;12.43;;;5.65;;
12214;SDS011;6170;42.206;24.142;2023-03-24T15:59:44;11.48;;;6.25;;
12214;SDS011;6170;42.206;24.142;2023-03-24T16:02:16;11.75;;;5.70;;
12214;SDS011;6170;42.206;24.142;2023-03-24T16:04:49;15.63;;;6.40;;
12214;SDS011;6170;42.206;24.142;2023-03-24T16:07:23;12.35;;;8.23;;
12214;SDS011;6170;42.206;24.142;2023-03-24T16:09:54;10.35;;;6.80;;
12214;SDS011;6170;42.206;24.142;2023-03-24T16:12:30;8.48;;;5.80;;
12214;SDS011;6170;42.206;24.142;2023-03-24T16:14:57;10.52;;;5.93;;
12214;SDS011;6170;42.206;24.142;2023-03-24T16:17:24;7.78;;;5.72;;
12214;SDS011;6170;42.206;24.142;2023-03-24T16:19:51;7.40;;;6.25;;
12214;SDS011;6170;42.206;24.142;2023-03-24T16:22:18;11.02;;;7.10;;
12214;SDS011;6170;42.206;24.142;2023-03-24T16:24:45;25.42;;;8.55;;
12214;SDS011;6170;42.206;24.142;2023-03-24T16:27:12;12.77;;;8.30;;
12214;SDS011;6170;42.206;24.142;2023-03-24T16:29:41;11.82;;;8.07;;
12214;SDS011;6170;42.206;24.142;2023-03-24T16:32:08;13.98;;;7.93;;
12214;SDS011;6170;42.206;24.142;2023-03-24T16:34:35;10.25;;;7.57;;
12214;SDS011;6170;42.206;24.142;2023-03-24T16:37:02;16.27;;;7.72;;
12214;SDS011;6170;42.206;24.142;2023-03-24T16:39:30;16.33;;;7.68;;
12214;SDS011;6170;42.206;24.142;2023-03-24T16:41:57;10.85;;;8.95;;
12214;SDS011;6170;42.206;24.142;2023-03-24T16:44:24;21.05;;;10.07;;
12214;SDS011;6170;42.206;24.142;2023-03-24T16:46:53;17.48;;;11.10;;
12214;SDS011;6170;42.206;24.142;2023-03-24T16:49:21;17.40;;;9.57;;
12214;SDS011;6170;42.206;24.142;2023-03-24T16:51:48;22.58;;;12.63;;
12214;SDS011;6170;42.206;24.142;2023-03-24T16:54:16;27.13;;;12.90;;
12214;SDS011;6170;42.206;24.142;2023-03-24T16:56:44;22.67;;;12.80;;
12214;SDS011;6170;42.206;24.142;2023-03-24T16:59:11;27.95;;;17.00;;
12214;SDS011;6170;42.206;24.142;2023-03-24T17:01:40;34.53;;;19.02;;
12214;SDS011;6170;42.206;24.142;2023-03-24T17:04:11;36.22;;;20.00;;
12214;SDS011;6170;42.206;24.142;2023-03-24T17:06:41;43.30;;;23.88;;
12214;SDS011;6170;42.206;24.142;2023-03-24T17:09:11;48.17;;;15.48;;
12214;SDS011;6170;42.206;24.142;2023-03-24T17:11:39;30.63;;;15.55;;
12214;SDS011;6170;42.206;24.142;2023-03-24T17:14:07;28.15;;;14.13;;
12214;SDS011;6170;42.206;24.142;2023-03-24T17:16:37;31.80;;;14.40;;
12214;SDS011;6170;42.206;24.142;2023-03-24T17:19:07;35.83;;;16.02;;
12214;SDS011;6170;42.206;24.142;2023-03-24T17:21:37;37.10;;;18.85;;
12214;SDS011;6170;42.206;24.142;2023-03-24T17:24:07;32.13;;;15.13;;
12214;SDS011;6170;42.206;24.142;2023-03-24T17:26:35;27.17;;;14.45;;
12214;SDS011;6170;42.206;24.142;2023-03-24T17:29:02;29.98;;;15.57;;
12214;SDS011;6170;42.206;24.142;2023-03-24T17:31:30;40.03;;;21.05;;
12214;SDS011;6170;42.206;24.142;2023-03-24T17:33:57;36.72;;;21.70;;
12214;SDS011;6170;42.206;24.142;2023-03-24T17:36:24;61.10;;;27.77;;
12214;SDS011;6170;42.206;24.142;2023-03-24T17:38:52;63.85;;;31.13;;
12214;SDS011;6170;42.206;24.142;2023-03-24T17:41:19;90.07;;;41.88;;
12214;SDS011;6170;42.206;24.142;2023-03-24T17:43:46;108.45;;;49.53;;
12214;SDS011;6170;42.206;24.142;2023-03-24T17:46:13;99.32;;;46.47;;
12214;SDS011;6170;42.206;24.142;2023-03-24T17:48:40;104.53;;;46.47;;
12214;SDS011;6170;42.206;24.142;2023-03-24T17:51:07;87.55;;;40.90;;
12214;SDS011;6170;42.206;24.142;2023-03-24T17:53:34;86.85;;;37.55;;
12214;SDS011;6170;42.206;24.142;2023-03-24T17:56:03;73.93;;;30.75;;
12214;SDS011;6170;42.206;24.142;2023-03-24T17:58:31;75.13;;;31.10;;
12214;SDS011;6170;42.206;24.142;2023-03-24T18:01:00;68.72;;;27.98;;
12214;SDS011;6170;42.206;24.142;2023-03-24T18:03:30;57.40;;;22.10;;
12214;SDS011;6170;42.206;24.142;2023-03-24T18:06:03;46.50;;;21.30;;
12214;SDS011;6170;42.206;24.142;2023-03-24T18:08:31;50.10;;;21.20;;
12214;SDS011;6170;42.206;24.142;2023-03-24T18:11:03;43.42;;;19.85;;
12214;SDS011;6170;42.206;24.142;2023-03-24T18:13:30;34.40;;;18.20;;
12214;SDS011;6170;42.206;24.142;2023-03-24T18:15:57;36.95;;;20.52;;
12214;SDS011;6170;42.206;24.142;2023-03-24T18:18:25;34.97;;;20.00;;
12214;SDS011;6170;42.206;24.142;2023-03-24T18:20:52;34.25;;;20.75;;
12214;SDS011;6170;42.206;24.142;2023-03-24T18:23:20;39.42;;;24.50;;
12214;SDS011;6170;42.206;24.142;2023-03-24T18:25:47;37.05;;;23.58;;
12214;SDS011;6170;42.206;24.142;2023-03-24T18:28:22;30.67;;;18.60;;
12214;SDS011;6170;42.206;24.142;2023-03-24T18:30:49;26.15;;;16.25;;
12214;SDS011;6170;42.206;24.142;2023-03-24T18:33:16;23.50;;;14.80;;
12214;SDS011;6170;42.206;24.142;2023-03-24T18:35:47;31.67;;;17.67;;
12214;SDS011;6170;42.206;24.142;2023-03-24T18:38:15;55.38;;;23.50;;
12214;SDS011;6170;42.206;24.142;2023-03-24T18:40:46;40.78;;;20.80;;
12214;SDS011;6170;42.206;24.142;2023-03-24T18:43:13;32.08;;;16.15;;
12214;SDS011;6170;42.206;24.142;2023-03-24T18:45:42;23.45;;;14.25;;
12214;SDS011;6170;42.206;24.142;2023-03-24T18:48:09;22.10;;;14.23;;
12214;SDS011;6170;42.206;24.142;2023-03-24T18:50:37;25.13;;;15.18;;
12214;SDS011;6170;42.206;24.142;2023-03-24T18:53:05;28.23;;;14.77;;
12214;SDS011;6170;42.206;24.142;2023-03-24T18:55:32;21.70;;;14.45;;
12214;SDS011;6170;42.206;24.142;2023-03-24T18:57:59;23.52;;;14.50;;
12214;SDS011;6170;42.206;24.142;2023-03-24T19:00:26;25.23;;;15.63;;
12214;SDS011;6170;42.206;24.142;2023-03-24T19:02:54;26.08;;;15.60;;
12214;SDS011;6170;42.206;24.142;2023-03-24T19:05:21;26.33;;;15.80;;
12214;SDS011;6170;42.206;24.142;2023-03-24T19:07:48;28.70;;;17.02;;
12214;SDS011;6170;42.206;24.142;2023-03-24T19:10:16;29.27;;;15.07;;
12214;SDS011;6170;42.206;24.142;2023-03-24T19:12:43;30.30;;;17.75;;
12214;SDS011;6170;42.206;24.142;2023-03-24T19:15:10;33.00;;;18.95;;
12214;SDS011;6170;42.206;24.142;2023-03-24T19:17:38;28.45;;;18.52;;
12214;SDS011;6170;42.206;24.142;2023-03-24T19:20:07;30.05;;;16.98;;
12214;SDS011;6170;42.206;24.142;2023-03-24T19:22:35;27.20;;;16.63;;
12214;SDS011;6170;42.206;24.142;2023-03-24T19:25:04;22.65;;;14.77;;
12214;SDS011;6170;42.206;24.142;2023-03-24T19:27:32;23.73;;;13.95;;
12214;SDS011;6170;42.206;24.142;2023-03-24T19:29:59;22.60;;;14.80;;
12214;SDS011;6170;42.206;24.142;2023-03-24T19:32:29;24.67;;;14.18;;
12214;SDS011;6170;42.206;24.142;2023-03-24T19:34:56;29.00;;;16.02;;
12214;SDS011;6170;42.206;24.142;2023-03-24T19:37:24;25.95;;;13.65;;
12214;SDS011;6170;42.206;24.142;2023-03-24T19:39:51;21.48;;;13.10;;
12214;SDS011;6170;42.206;24.142;2023-03-24T19:42:18;23.25;;;14.23;;
12214;SDS011;6170;42.206;24.142;2023-03-24T19:44:47;26.30;;;14.25;;
12214;SDS011;6170;42.206;24.142;2023-03-24T19:47:14;21.98;;;13.48;;
12214;SDS011;6170;42.206;24.142;2023-03-24T19:49:41;19.55;;;12.95;;
12214;SDS011;6170;42.206;24.142;2023-03-24T19:52:08;16.80;;;11.55;;
12214;SDS011;6170;42.206;24.142;2023-03-24T19:54:36;18.45;;;12.15;;
12214;SDS011;6170;42.206;24.142;2023-03-24T19:57:03;15.55;;;10.70;;
12214;SDS011;6170;42.206;24.142;2023-03-24T19:59:30;18.88;;;10.98;;
12214;SDS011;6170;42.206;24.142;2023-03-24T20:01:58;21.75;;;10.52;;
12214;SDS011;6170;42.206;24.142;2023-03-24T20:04:26;17.13;;;11.38;;
12214;SDS011;6170;42.206;24.142;2023-03-24T20:06:52;18.27;;;10.65;;
12214;SDS011;6170;42.206;24.142;2023-03-24T20:09:19;20.73;;;9.82;;
12214;SDS011;6170;42.206;24.142;2023-03-24T20:11:48;22.77;;;11.85;;
12214;SDS011;6170;42.206;24.142;2023-03-24T20:14:17;18.45;;;11.57;;
12214;SDS011;6170;42.206;24.142;2023-03-24T20:16:44;19.48;;;11.50;;
12214;SDS011;6170;42.206;24.142;2023-03-24T20:19:11;20.77;;;12.25;;
12214;SDS011;6170;42.206;24.142;2023-03-24T20:21:38;19.67;;;11.45;;
12214;SDS011;6170;42.206;24.142;2023-03-24T20:24:05;15.82;;;10.82;;
12214;SDS011;6170;42.206;24.142;2023-03-24T20:26:32;19.40;;;11.82;;
12214;SDS011;6170;42.206;24.142;2023-03-24T20:29:02;19.92;;;11.70;;
12214;SDS011;6170;42.206;24.142;2023-03-24T20:31:29;18.38;;;11.32;;
12214;SDS011;6170;42.206;24.142;2023-03-24T20:33:56;19.13;;;12.20;;
12214;SDS011;6170;42.206;24.142;2023-03-24T20:36:23;29.60;;;15.07;;
12214;SDS011;6170;42.206;24.142;2023-03-24T20:38:50;26.33;;;14.68;;
12214;SDS011;6170;42.206;24.142;2023-03-24T20:41:17;31.17;;;18.02;;
12214;SDS011;6170;42.206;24.142;2023-03-24T20:43:46;35.38;;;19.30;;
12214;SDS011;6170;42.206;24.142;2023-03-24T20:46:15;32.05;;;18.15;;
12214;SDS011;6170;42.206;24.142;2023-03-24T20:48:43;30.05;;;17.60;;
12214;SDS011;6170;42.206;24.142;2023-03-24T20:51:10;36.22;;;17.95;;
12214;SDS011;6170;42.206;24.142;2023-03-24T20:53:38;24.50;;;15.80;;
12214;SDS011;6170;42.206;24.142;2023-03-24T20:56:06;27.83;;;16.85;;
12214;SDS011;6170;42.206;24.142;2023-03-24T20:58:37;24.40;;;14.85;;
12214;SDS011;6170;42.206;24.142;2023-03-24T21:01:05;25.48;;;16.00;;
12214;SDS011;6170;42.206;24.142;2023-03-24T21:03:35;28.75;;;16.67;;
12214;SDS011;6170;42.206;24.142;2023-03-24T21:06:02;30.77;;;17.45;;
12214;SDS011;6170;42.206;24.142;2023-03-24T21:08:30;30.35;;;16.48;;
12214;SDS011;6170;42.206;24.142;2023-03-24T21:10:57;26.25;;;16.80;;
12214;SDS011;6170;42.206;24.142;2023-03-24T21:13:24;27.17;;;16.58;;
12214;SDS011;6170;42.206;24.142;2023-03-24T21:15:51;31.83;;;17.67;;
12214;SDS011;6170;42.206;24.142;2023-03-24T21:18:18;33.42;;;16.85;;
12214;SDS011;6170;42.206;24.142;2023-03-24T21:20:50;31.83;;;16.65;;
12214;SDS011;6170;42.206;24.142;2023-03-24T21:23:20;29.40;;;17.17;;
12214;SDS011;6170;42.206;24.142;2023-03-24T21:25:47;25.73;;;16.02;;
12214;SDS011;6170;42.206;24.142;2023-03-24T21:28:14;29.90;;;16.92;;
12214;SDS011;6170;42.206;24.142;2023-03-24T21:30:43;30.85;;;18.05;;
12214;SDS011;6170;42.206;24.142;2023-03-24T21:33:10;35.13;;;18.42;;
12214;SDS011;6170;42.206;24.142;2023-03-24T21:35:38;39.10;;;18.95;;
12214;SDS011;6170;42.206;24.142;2023-03-24T21:38:07;29.13;;;16.48;;
12214;SDS011;6170;42.206;24.142;2023-03-24T21:40:35;25.75;;;15.82;;
12214;SDS011;6170;42.206;24.142;2023-03-24T21:43:02;28.65;;;16.42;;
12214;SDS011;6170;42.206;24.142;2023-03-24T21:45:30;27.70;;;17.15;;
12214;SDS011;6170;42.206;24.142;2023-03-24T21:48:00;30.23;;;16.40;;
12214;SDS011;6170;42.206;24.142;2023-03-24T21:50:29;28.65;;;16.95;;
12214;SDS011;6170;42.206;24.142;2023-03-24T21:52:59;31.35;;;17.77;;
12214;SDS011;6170;42.206;24.142;2023-03-24T21:55:32;33.28;;;16.77;;
12214;SDS011;6170;42.206;24.142;2023-03-24T21:57:58;27.58;;;14.27;;
12214;SDS011;6170;42.206;24.142;2023-03-24T22:00:25;29.75;;;14.82;;
12214;SDS011;6170;42.206;24.142;2023-03-24T22:02:54;25.02;;;13.40;;
12214;SDS011;6170;42.206;24.142;2023-03-24T22:05:22;32.80;;;16.15;;
12214;SDS011;6170;42.206;24.142;2023-03-24T22:07:51;48.45;;;21.02;;
12214;SDS011;6170;42.206;24.142;2023-03-24T22:10:20;40.58;;;18.85;;
12214;SDS011;6170;42.206;24.142;2023-03-24T22:12:49;40.55;;;17.80;;
12214;SDS011;6170;42.206;24.142;2023-03-24T22:15:16;38.45;;;19.13;;
12214;SDS011;6170;42.206;24.142;2023-03-24T22:17:44;41.92;;;20.65;;
12214;SDS011;6170;42.206;24.142;2023-03-24T22:20:11;47.70;;;22.40;;
12214;SDS011;6170;42.206;24.142;2023-03-24T22:22:39;55.53;;;22.85;;
12214;SDS011;6170;42.206;24.142;2023-03-24T22:25:07;52.28;;;21.40;;
12214;SDS011;6170;42.206;24.142;2023-03-24T22:27:36;42.28;;;17.70;;
12214;SDS011;6170;42.206;24.142;2023-03-24T22:30:05;30.75;;;14.20;;
12214;SDS011;6170;42.206;24.142;2023-03-24T22:32:34;27.50;;;15.05;;
12214;SDS011;6170;42.206;24.142;2023-03-24T22:35:01;28.58;;;14.70;;
12214;SDS011;6170;42.206;24.142;2023-03-24T22:37:29;25.45;;;13.63;;
12214;SDS011;6170;42.206;24.142;2023-03-24T22:39:57;30.42;;;14.00;;
12214;SDS011;6170;42.206;24.142;2023-03-24T22:42:24;27.75;;;14.57;;
12214;SDS011;6170;42.206;24.142;2023-03-24T22:44:51;40.83;;;17.38;;
12214;SDS011;6170;42.206;24.142;2023-03-24T22:47:19;49.80;;;23.75;;
12214;SDS011;6170;42.206;24.142;2023-03-24T22:49:47;43.42;;;23.17;;
12214;SDS011;6170;42.206;24.142;2023-03-24T22:52:15;44.50;;;24.08;;
12214;SDS011;6170;42.206;24.142;2023-03-24T22:54:41;50.47;;;25.10;;
12214;SDS011;6170;42.206;24.142;2023-03-24T22:57:08;41.42;;;22.48;;
12214;SDS011;6170;42.206;24.142;2023-03-24T22:59:35;47.65;;;23.15;;
12214;SDS011;6170;42.206;24.142;2023-03-24T23:02:02;52.33;;;23.80;;
12214;SDS011;6170;42.206;24.142;2023-03-24T23:04:31;41.58;;;19.00;;
12214;SDS011;6170;42.206;24.142;2023-03-24T23:06:58;26.90;;;15.57;;
12214;SDS011;6170;42.206;24.142;2023-03-24T23:09:24;23.85;;;12.88;;
12214;SDS011;6170;42.206;24.142;2023-03-24T23:11:53;18.65;;;11.10;;
12214;SDS011;6170;42.206;24.142;2023-03-24T23:14:20;17.42;;;10.48;;
12214;SDS011;6170;42.206;24.142;2023-03-24T23:16:49;20.80;;;11.98;;
12214;SDS011;6170;42.206;24.142;2023-03-24T23:19:18;30.73;;;15.45;;
12214;SDS011;6170;42.206;24.142;2023-03-24T23:21:46;34.25;;;17.67;;
12214;SDS011;6170;42.206;24.142;2023-03-24T23:24:13;37.65;;;18.75;;
12214;SDS011;6170;42.206;24.142;2023-03-24T23:26:40;33.17;;;16.63;;
12214;SDS011;6170;42.206;24.142;2023-03-24T23:29:07;34.80;;;15.80;;
12214;SDS011;6170;42.206;24.142;2023-03-24T23:31:34;32.45;;;14.75;;
12214;SDS011;6170;42.206;24.142;2023-03-24T23:34:01;24.27;;;13.70;;
12214;SDS011;6170;42.206;24.142;2023-03-24T23:36:31;21.65;;;11.32;;
12214;SDS011;6170;42.206;24.142;2023-03-24T23:39:00;24.58;;;12.57;;
12214;SDS011;6170;42.206;24.142;2023-03-24T23:41:27;21.25;;;11.52;;
12214;SDS011;6170;42.206;24.142;2023-03-24T23:43:54;17.75;;;11.15;;
12214;SDS011;6170;42.206;24.142;2023-03-24T23:46:22;18.80;;;11.60;;
12214;SDS011;6170;42.206;24.142;2023-03-24T23:48:49;18.38;;;9.98;;
12214;SDS011;6170;42.206;24.142;2023-03-24T23:51:16;14.13;;;9.75;;
12214;SDS011;6170;42.206;24.142;2023-03-24T23:53:43;17.95;;;9.10;;
12214;SDS011;6170;42.206;24.142;2023-03-24T23:56:11;14.90;;;9.10;;
12214;SDS011;6170;42.206;24.142;2023-03-24T23:58:39;16.42;;;9.68;;
